sensor_id;sensor_type;location;lat;lon;timestamp;temperature;humidity
3614;DHT22;1821;50.936;6.854;2023-04-01T00:00:20;10.90;1.00
3614;DHT22;1821;50.936;6.854;2023-04-01T00:01:03;10.70;1.00
3614;DHT22;1821;50.936;6.854;2023-04-01T00:01:48;10.80;99.90
3614;DHT22;1821;50.936;6.854;2023-04-01T00:02:30;10.70;1.00
3614;DHT22;1821;50.936;6.854;2023-04-01T00:03:13;10.70;1.00
3614;DHT22;1821;50.936;6.854;2023-04-01T00:03:54;11.10;1.00
3614;DHT22;1821;50.936;6.854;2023-04-01T00:04:37;10.70;99.90
3614;DHT22;1821;50.936;6.854;2023-04-01T00:05:19;10.80;1.00
3614;DHT22;1821;50.936;6.854;2023-04-01T00:06:01;11.40;1.00
3614;DHT22;1821;50.936;6.854;2023-04-01T00:06:44;11.00;99.90
3614;DHT22;1821;50.936;6.854;2023-04-01T00:07:26;10.90;99.90
3614;DHT22;1821;50.936;6.854;2023-04-01T00:08:11;11.00;1.00
3614;DHT22;1821;50.936;6.854;2023-04-01T00:08:53;11.00;99.90
3614;DHT22;1821;50.936;6.854;2023-04-01T00:09:36;10.90;99.90
3614;DHT22;1821;50.936;6.854;2023-04-01T00:10:18;11.00;1.00
3614;DHT22;1821;50.936;6.854;2023-04-01T00:11:00;11.20;1.00
3614;DHT22;1821;50.936;6.854;2023-04-01T00:11:43;10.90;1.00
3614;DHT22;1821;50.936;6.854;2023-04-01T00:12:28;11.00;99.90
3614;DHT22;1821;50.936;6.854;2023-04-01T00:13:10;11.00;99.90
3614;DHT22;1821;50.936;6.854;2023-04-01T00:13:52;11.10;99.90
3614;DHT22;1821;50.936;6.854;2023-04-01T00:14:34;10.80;99.90
3614;DHT22;1821;50.936;6.854;2023-04-01T00:15:19;11.00;99.90
3614;DHT22;1821;50.936;6.854;2023-04-01T00:16:01;10.70;1.00
3614;DHT22;1821;50.936;6.854;2023-04-01T00:16:44;11.00;1.00
3614;DHT22;1821;50.936;6.854;2023-04-01T00:17:26;11.00;1.00
3614;DHT22;1821;50.936;6.854;2023-04-01T00:18:09;10.80;1.00
3614;DHT22;1821;50.936;6.854;2023-04-01T00:18:51;10.90;1.00
3614;DHT22;1821;50.936;6.854;2023-04-01T00:19:33;11.00;1.00
3614;DHT22;1821;50.936;6.854;2023-04-01T00:20:15;10.70;1.00
3614;DHT22;1821;50.936;6.854;2023-04-01T00:20:57;10.80;1.00
3614;DHT22;1821;50.936;6.854;2023-04-01T00:21:39;11.00;1.00
3614;DHT22;1821;50.936;6.854;2023-04-01T00:22:22;10.90;1.00
3614;DHT22;1821;50.936;6.854;2023-04-01T00:23:04;11.00;99.90
3614;DHT22;1821;50.936;6.854;2023-04-01T00:23:46;10.90;99.90
3614;DHT22;1821;50.936;6.854;2023-04-01T00:24:29;11.00;99.90
3614;DHT22;1821;50.936;6.854;2023-04-01T00:25:13;10.70;1.00
3614;DHT22;1821;50.936;6.854;2023-04-01T00:25:55;11.00;1.00
3614;DHT22;1821;50.936;6.854;2023-04-01T00:26:37;10.60;1.00
3614;DHT22;1821;50.936;6.854;2023-04-01T00:27:21;11.00;1.00
3614;DHT22;1821;50.936;6.854;2023-04-01T00:28:03;11.10;1.00
3614;DHT22;1821;50.936;6.854;2023-04-01T00:28:45;10.80;1.00
3614;DHT22;1821;50.936;6.854;2023-04-01T00:29:28;11.00;1.00
3614;DHT22;1821;50.936;6.854;2023-04-01T00:30:14;10.90;99.90
3614;DHT22;1821;50.936;6.854;2023-04-01T00:30:57;10.90;1.00
3614;DHT22;1821;50.936;6.854;2023-04-01T00:31:38;11.10;1.00
3614;DHT22;1821;50.936;6.854;2023-04-01T00:32:21;10.80;1.00
3614;DHT22;1821;50.936;6.854;2023-04-01T00:33:03;10.70;1.00
3614;DHT22;1821;50.936;6.854;2023-04-01T00:33:46;10.70;1.00
3614;DHT22;1821;50.936;6.854;2023-04-01T00:34:28;11.00;1.00
3614;DHT22;1821;50.936;6.854;2023-04-01T00:35:10;10.70;1.00
3614;DHT22;1821;50.936;6.854;2023-04-01T00:35:52;10.80;1.00
3614;DHT22;1821;50.936;6.854;2023-04-01T00:36:34;10.90;1.00
3614;DHT22;1821;50.936;6.854;2023-04-01T00:37:18;10.80;1.00
3614;DHT22;1821;50.936;6.854;2023-04-01T00:38:00;11.00;1.00
3614;DHT22;1821;50.936;6.854;2023-04-01T00:38:43;10.70;99.90
3614;DHT22;1821;50.936;6.854;2023-04-01T00:39:29;10.80;99.90
3614;DHT22;1821;50.936;6.854;2023-04-01T00:40:27;11.20;99.90
3614;DHT22;1821;50.936;6.854;2023-04-01T00:41:13;10.90;99.90
3614;DHT22;1821;50.936;6.854;2023-04-01T00:41:56;11.00;1.00
3614;DHT22;1821;50.936;6.854;2023-04-01T00:42:39;11.10;1.00
3614;DHT22;1821;50.936;6.854;2023-04-01T00:43:21;10.90;1.00
3614;DHT22;1821;50.936;6.854;2023-04-01T00:44:22;10.90;1.00
3614;DHT22;1821;50.936;6.854;2023-04-01T00:45:25;10.70;99.90
3614;DHT22;1821;50.936;6.854;2023-04-01T00:46:08;10.90;99.90
3614;DHT22;1821;50.936;6.854;2023-04-01T00:46:50;10.80;1.00
3614;DHT22;1821;50.936;6.854;2023-04-01T00:47:34;12.90;99.90
3614;DHT22;1821;50.936;6.854;2023-04-01T00:48:22;10.80;1.00
3614;DHT22;1821;50.936;6.854;2023-04-01T00:49:06;10.70;99.90
3614;DHT22;1821;50.936;6.854;2023-04-01T00:49:51;10.90;1.00
3614;DHT22;1821;50.936;6.854;2023-04-01T00:50:37;10.80;99.90
3614;DHT22;1821;50.936;6.854;2023-04-01T00:51:27;10.70;99.90
3614;DHT22;1821;50.936;6.854;2023-04-01T00:52:13;10.80;99.90
3614;DHT22;1821;50.936;6.854;2023-04-01T00:52:59;11.00;99.90
3614;DHT22;1821;50.936;6.854;2023-04-01T00:53:44;10.70;99.90
3614;DHT22;1821;50.936;6.854;2023-04-01T00:54:27;10.60;99.90
3614;DHT22;1821;50.936;6.854;2023-04-01T00:55:14;11.00;99.90
3614;DHT22;1821;50.936;6.854;2023-04-01T00:56:10;11.00;1.00
3614;DHT22;1821;50.936;6.854;2023-04-01T00:57:02;11.00;99.90
3614;DHT22;1821;50.936;6.854;2023-04-01T00:57:49;10.70;99.90
3614;DHT22;1821;50.936;6.854;2023-04-01T00:58:35;11.00;1.00
3614;DHT22;1821;50.936;6.854;2023-04-01T00:59:23;11.00;1.00
3614;DHT22;1821;50.936;6.854;2023-04-01T01:00:10;10.80;1.00
3614;DHT22;1821;50.936;6.854;2023-04-01T01:00:53;10.70;99.90
3614;DHT22;1821;50.936;6.854;2023-04-01T01:01:37;10.70;99.90
3614;DHT22;1821;50.936;6.854;2023-04-01T01:02:20;11.00;1.00
3614;DHT22;1821;50.936;6.854;2023-04-01T01:03:02;10.90;99.90
3614;DHT22;1821;50.936;6.854;2023-04-01T01:03:44;10.80;99.90
3614;DHT22;1821;50.936;6.854;2023-04-01T01:04:31;11.00;1.00
3614;DHT22;1821;50.936;6.854;2023-04-01T01:05:15;10.90;1.00
3614;DHT22;1821;50.936;6.854;2023-04-01T01:06:43;11.10;1.00
3614;DHT22;1821;50.936;6.854;2023-04-01T01:07:47;11.00;99.90
3614;DHT22;1821;50.936;6.854;2023-04-01T01:10:36;11.10;1.00
3614;DHT22;1821;50.936;6.854;2023-04-01T01:12:00;10.80;1.00
3614;DHT22;1821;50.936;6.854;2023-04-01T01:12:54;10.70;1.00
3614;DHT22;1821;50.936;6.854;2023-04-01T01:16:06;11.10;1.00
3614;DHT22;1821;50.936;6.854;2023-04-01T01:16:59;11.00;99.90
3614;DHT22;1821;50.936;6.854;2023-04-01T01:18:01;10.70;1.00
3614;DHT22;1821;50.936;6.854;2023-04-01T01:18:56;11.10;99.90
3614;DHT22;1821;50.936;6.854;2023-04-01T01:24:28;11.10;1.00
3614;DHT22;1821;50.936;6.854;2023-04-01T01:27:54;10.90;1.00
3614;DHT22;1821;50.936;6.854;2023-04-01T01:28:51;10.90;1.00
3614;DHT22;1821;50.936;6.854;2023-04-01T01:31:51;10.60;99.90
3614;DHT22;1821;50.936;6.854;2023-04-01T01:33:57;11.10;1.00
3614;DHT22;1821;50.936;6.854;2023-04-01T01:35:35;10.70;99.90
3614;DHT22;1821;50.936;6.854;2023-04-01T01:36:20;10.70;99.90
3614;DHT22;1821;50.936;6.854;2023-04-01T01:37:08;10.70;1.00
3614;DHT22;1821;50.936;6.854;2023-04-01T01:37:55;10.60;1.00
3614;DHT22;1821;50.936;6.854;2023-04-01T01:38:40;10.90;1.00
3614;DHT22;1821;50.936;6.854;2023-04-01T01:39:26;11.10;1.00
3614;DHT22;1821;50.936;6.854;2023-04-01T01:40:11;10.60;1.00
3614;DHT22;1821;50.936;6.854;2023-04-01T01:40:55;10.60;1.00
3614;DHT22;1821;50.936;6.854;2023-04-01T01:41:41;10.70;1.00
3614;DHT22;1821;50.936;6.854;2023-04-01T01:42:26;10.90;1.00
3614;DHT22;1821;50.936;6.854;2023-04-01T01:43:12;10.60;1.00
3614;DHT22;1821;50.936;6.854;2023-04-01T01:43:59;10.80;1.00
3614;DHT22;1821;50.936;6.854;2023-04-01T01:44:46;10.80;1.00
3614;DHT22;1821;50.936;6.854;2023-04-01T01:45:30;10.90;1.00
3614;DHT22;1821;50.936;6.854;2023-04-01T01:46:17;10.60;1.00
3614;DHT22;1821;50.936;6.854;2023-04-01T01:47:01;10.80;99.90
3614;DHT22;1821;50.936;6.854;2023-04-01T01:47:43;10.70;99.90
3614;DHT22;1821;50.936;6.854;2023-04-01T01:48:26;10.60;99.90
3614;DHT22;1821;50.936;6.854;2023-04-01T01:49:10;10.80;99.90
3614;DHT22;1821;50.936;6.854;2023-04-01T01:49:56;10.50;99.90
3614;DHT22;1821;50.936;6.854;2023-04-01T01:50:40;10.40;99.90
3614;DHT22;1821;50.936;6.854;2023-04-01T01:51:22;10.40;99.90
3614;DHT22;1821;50.936;6.854;2023-04-01T01:52:05;10.70;99.90
3614;DHT22;1821;50.936;6.854;2023-04-01T01:52:49;10.40;99.90
3614;DHT22;1821;50.936;6.854;2023-04-01T01:53:32;10.60;99.90
3614;DHT22;1821;50.936;6.854;2023-04-01T01:54:15;10.40;1.00
3614;DHT22;1821;50.936;6.854;2023-04-01T01:54:58;10.70;99.90
3614;DHT22;1821;50.936;6.854;2023-04-01T01:55:43;10.70;1.00
3614;DHT22;1821;50.936;6.854;2023-04-01T01:56:27;10.60;99.90
3614;DHT22;1821;50.936;6.854;2023-04-01T01:57:13;10.40;99.90
3614;DHT22;1821;50.936;6.854;2023-04-01T01:57:59;10.10;99.90
3614;DHT22;1821;50.936;6.854;2023-04-01T01:58:49;10.50;99.90
3614;DHT22;1821;50.936;6.854;2023-04-01T01:59:34;10.50;99.90
3614;DHT22;1821;50.936;6.854;2023-04-01T02:00:18;10.40;1.00
3614;DHT22;1821;50.936;6.854;2023-04-01T02:01:03;10.30;1.00
3614;DHT22;1821;50.936;6.854;2023-04-01T02:01:51;10.40;1.00
3614;DHT22;1821;50.936;6.854;2023-04-01T02:02:36;10.30;1.00
3614;DHT22;1821;50.936;6.854;2023-04-01T02:03:21;10.50;1.00
3614;DHT22;1821;50.936;6.854;2023-04-01T02:04:04;10.40;1.00
3614;DHT22;1821;50.936;6.854;2023-04-01T02:04:47;10.30;1.00
3614;DHT22;1821;50.936;6.854;2023-04-01T02:05:30;10.50;1.00
3614;DHT22;1821;50.936;6.854;2023-04-01T02:06:17;10.30;1.00
3614;DHT22;1821;50.936;6.854;2023-04-01T02:07:03;10.50;1.00
3614;DHT22;1821;50.936;6.854;2023-04-01T02:08:51;10.50;1.00
3614;DHT22;1821;50.936;6.854;2023-04-01T02:09:35;10.20;1.00
3614;DHT22;1821;50.936;6.854;2023-04-01T02:10:18;9.90;1.00
3614;DHT22;1821;50.936;6.854;2023-04-01T02:11:05;10.20;1.00
3614;DHT22;1821;50.936;6.854;2023-04-01T02:11:56;10.40;1.00
3614;DHT22;1821;50.936;6.854;2023-04-01T02:12:42;10.10;99.90
3614;DHT22;1821;50.936;6.854;2023-04-01T02:13:31;10.10;1.00
3614;DHT22;1821;50.936;6.854;2023-04-01T02:14:26;10.20;1.00
3614;DHT22;1821;50.936;6.854;2023-04-01T02:15:10;10.40;1.00
3614;DHT22;1821;50.936;6.854;2023-04-01T02:15:55;10.20;1.00
3614;DHT22;1821;50.936;6.854;2023-04-01T02:16:46;10.20;1.00
3614;DHT22;1821;50.936;6.854;2023-04-01T02:17:32;10.20;1.00
3614;DHT22;1821;50.936;6.854;2023-04-01T02:18:16;10.20;1.00
3614;DHT22;1821;50.936;6.854;2023-04-01T02:19:03;10.10;1.00
3614;DHT22;1821;50.936;6.854;2023-04-01T02:19:57;10.30;1.00
3614;DHT22;1821;50.936;6.854;2023-04-01T02:20:43;10.30;4.30
3614;DHT22;1821;50.936;6.854;2023-04-01T02:21:31;10.10;1.00
3614;DHT22;1821;50.936;6.854;2023-04-01T02:22:20;10.30;12.50
3614;DHT22;1821;50.936;6.854;2023-04-01T02:23:03;10.20;99.90
3614;DHT22;1821;50.936;6.854;2023-04-01T02:23:49;10.10;99.90
3614;DHT22;1821;50.936;6.854;2023-04-01T02:24:34;9.70;1.00
3614;DHT22;1821;50.936;6.854;2023-04-01T02:25:23;9.70;1.00
3614;DHT22;1821;50.936;6.854;2023-04-01T02:26:07;9.80;99.90
3614;DHT22;1821;50.936;6.854;2023-04-01T02:26:51;9.70;98.00
3614;DHT22;1821;50.936;6.854;2023-04-01T02:27:34;9.70;1.00
3614;DHT22;1821;50.936;6.854;2023-04-01T02:28:19;9.80;22.00
3614;DHT22;1821;50.936;6.854;2023-04-01T02:29:03;9.70;1.00
3614;DHT22;1821;50.936;6.854;2023-04-01T02:29:47;9.60;1.00
3614;DHT22;1821;50.936;6.854;2023-04-01T02:30:31;9.60;20.50
3614;DHT22;1821;50.936;6.854;2023-04-01T02:31:14;9.80;99.90
3614;DHT22;1821;50.936;6.854;2023-04-01T02:31:57;10.00;45.70
3614;DHT22;1821;50.936;6.854;2023-04-01T02:32:40;10.00;99.90
3614;DHT22;1821;50.936;6.854;2023-04-01T02:33:23;9.70;99.90
3614;DHT22;1821;50.936;6.854;2023-04-01T02:34:08;9.90;99.90
3614;DHT22;1821;50.936;6.854;2023-04-01T02:34:50;11.00;1.00
3614;DHT22;1821;50.936;6.854;2023-04-01T02:35:35;9.70;1.00
3614;DHT22;1821;50.936;6.854;2023-04-01T02:36:20;9.60;1.00
3614;DHT22;1821;50.936;6.854;2023-04-01T02:37:03;9.60;1.00
3614;DHT22;1821;50.936;6.854;2023-04-01T02:37:50;9.90;1.00
3614;DHT22;1821;50.936;6.854;2023-04-01T02:38:35;10.10;99.90
3614;DHT22;1821;50.936;6.854;2023-04-01T02:39:18;9.50;99.90
3614;DHT22;1821;50.936;6.854;2023-04-01T02:40:03;9.80;99.90
3614;DHT22;1821;50.936;6.854;2023-04-01T02:40:59;9.90;16.70
3614;DHT22;1821;50.936;6.854;2023-04-01T02:41:44;9.80;1.00
3614;DHT22;1821;50.936;6.854;2023-04-01T02:42:26;9.50;99.90
3614;DHT22;1821;50.936;6.854;2023-04-01T02:43:08;9.90;99.90
3614;DHT22;1821;50.936;6.854;2023-04-01T02:43:52;9.70;99.90
3614;DHT22;1821;50.936;6.854;2023-04-01T02:44:34;9.80;99.90
3614;DHT22;1821;50.936;6.854;2023-04-01T02:45:16;9.80;99.90
3614;DHT22;1821;50.936;6.854;2023-04-01T02:45:59;9.70;12.50
3614;DHT22;1821;50.936;6.854;2023-04-01T02:46:43;9.60;99.90
3614;DHT22;1821;50.936;6.854;2023-04-01T02:47:25;9.70;1.00
3614;DHT22;1821;50.936;6.854;2023-04-01T02:48:07;9.60;99.90
3614;DHT22;1821;50.936;6.854;2023-04-01T02:48:50;9.60;99.90
3614;DHT22;1821;50.936;6.854;2023-04-01T02:49:32;9.70;99.90
3614;DHT22;1821;50.936;6.854;2023-04-01T02:50:14;9.60;99.90
3614;DHT22;1821;50.936;6.854;2023-04-01T02:50:56;9.60;99.90
3614;DHT22;1821;50.936;6.854;2023-04-01T02:51:38;9.50;99.90
3614;DHT22;1821;50.936;6.854;2023-04-01T02:52:20;9.60;99.90
3614;DHT22;1821;50.936;6.854;2023-04-01T02:53:02;10.10;99.90
3614;DHT22;1821;50.936;6.854;2023-04-01T02:53:45;9.70;99.90
3614;DHT22;1821;50.936;6.854;2023-04-01T02:54:27;9.90;1.00
3614;DHT22;1821;50.936;6.854;2023-04-01T02:55:09;9.80;99.90
3614;DHT22;1821;50.936;6.854;2023-04-01T02:55:51;9.80;1.00
3614;DHT22;1821;50.936;6.854;2023-04-01T02:56:36;9.70;99.90
3614;DHT22;1821;50.936;6.854;2023-04-01T02:57:18;9.70;99.90
3614;DHT22;1821;50.936;6.854;2023-04-01T02:58:01;9.70;99.90
3614;DHT22;1821;50.936;6.854;2023-04-01T02:58:43;9.70;99.90
3614;DHT22;1821;50.936;6.854;2023-04-01T02:59:25;9.60;99.90
3614;DHT22;1821;50.936;6.854;2023-04-01T03:00:07;9.80;15.20
3614;DHT22;1821;50.936;6.854;2023-04-01T03:00:52;10.00;1.00
3614;DHT22;1821;50.936;6.854;2023-04-01T03:01:34;9.80;49.60
3614;DHT22;1821;50.936;6.854;2023-04-01T03:02:17;9.80;99.90
3614;DHT22;1821;50.936;6.854;2023-04-01T03:02:59;9.70;1.00
3614;DHT22;1821;50.936;6.854;2023-04-01T03:03:42;9.70;1.00
3614;DHT22;1821;50.936;6.854;2023-04-01T03:04:26;9.80;61.30
3614;DHT22;1821;50.936;6.854;2023-04-01T03:05:08;9.90;1.00
3614;DHT22;1821;50.936;6.854;2023-04-01T03:05:50;9.80;1.00
3614;DHT22;1821;50.936;6.854;2023-04-01T03:06:32;9.70;1.00
3614;DHT22;1821;50.936;6.854;2023-04-01T03:07:14;9.90;1.00
3614;DHT22;1821;50.936;6.854;2023-04-01T03:07:56;9.50;1.00
3614;DHT22;1821;50.936;6.854;2023-04-01T03:08:38;10.10;99.90
3614;DHT22;1821;50.936;6.854;2023-04-01T03:09:21;9.90;1.00
3614;DHT22;1821;50.936;6.854;2023-04-01T03:10:03;9.80;1.00
3614;DHT22;1821;50.936;6.854;2023-04-01T03:10:45;10.00;1.00
3614;DHT22;1821;50.936;6.854;2023-04-01T03:11:29;9.80;1.00
3614;DHT22;1821;50.936;6.854;2023-04-01T03:12:13;9.70;1.00
3614;DHT22;1821;50.936;6.854;2023-04-01T03:12:55;9.60;1.00
3614;DHT22;1821;50.936;6.854;2023-04-01T03:13:37;9.90;1.00
3614;DHT22;1821;50.936;6.854;2023-04-01T03:14:19;9.70;1.00
3614;DHT22;1821;50.936;6.854;2023-04-01T03:15:02;9.90;1.00
3614;DHT22;1821;50.936;6.854;2023-04-01T03:15:54;9.80;1.00
3614;DHT22;1821;50.936;6.854;2023-04-01T03:16:36;9.90;99.90
3614;DHT22;1821;50.936;6.854;2023-04-01T03:17:18;10.00;99.90
3614;DHT22;1821;50.936;6.854;2023-04-01T03:18:03;9.60;1.00
3614;DHT22;1821;50.936;6.854;2023-04-01T03:18:47;10.10;99.90
3614;DHT22;1821;50.936;6.854;2023-04-01T03:19:31;9.80;99.90
3614;DHT22;1821;50.936;6.854;2023-04-01T03:20:13;10.00;1.00
3614;DHT22;1821;50.936;6.854;2023-04-01T03:20:57;9.70;1.00
3614;DHT22;1821;50.936;6.854;2023-04-01T03:21:40;10.00;99.90
3614;DHT22;1821;50.936;6.854;2023-04-01T03:22:24;10.10;99.90
3614;DHT22;1821;50.936;6.854;2023-04-01T03:23:06;10.00;99.90
3614;DHT22;1821;50.936;6.854;2023-04-01T03:23:49;9.70;99.90
3614;DHT22;1821;50.936;6.854;2023-04-01T03:24:31;10.00;99.90
3614;DHT22;1821;50.936;6.854;2023-04-01T03:25:13;10.00;99.90
3614;DHT22;1821;50.936;6.854;2023-04-01T03:25:55;9.80;1.00
3614;DHT22;1821;50.936;6.854;2023-04-01T03:26:37;9.90;99.90
3614;DHT22;1821;50.936;6.854;2023-04-01T03:27:19;9.80;99.90
3614;DHT22;1821;50.936;6.854;2023-04-01T03:28:02;9.80;99.90
3614;DHT22;1821;50.936;6.854;2023-04-01T03:28:44;9.70;99.90
3614;DHT22;1821;50.936;6.854;2023-04-01T03:29:26;9.80;99.90
3614;DHT22;1821;50.936;6.854;2023-04-01T03:30:08;9.90;1.00
3614;DHT22;1821;50.936;6.854;2023-04-01T03:30:51;9.70;99.90
3614;DHT22;1821;50.936;6.854;2023-04-01T03:31:35;10.30;99.90
3614;DHT22;1821;50.936;6.854;2023-04-01T03:32:19;9.60;99.90
3614;DHT22;1821;50.936;6.854;2023-04-01T03:33:02;10.00;99.90
3614;DHT22;1821;50.936;6.854;2023-04-01T03:33:44;9.90;99.90
3614;DHT22;1821;50.936;6.854;2023-04-01T03:34:27;10.00;1.00
3614;DHT22;1821;50.936;6.854;2023-04-01T03:35:08;10.00;1.00
3614;DHT22;1821;50.936;6.854;2023-04-01T03:35:52;9.70;99.90
3614;DHT22;1821;50.936;6.854;2023-04-01T03:36:34;9.90;25.20
3614;DHT22;1821;50.936;6.854;2023-04-01T03:37:16;9.80;99.90
3614;DHT22;1821;50.936;6.854;2023-04-01T03:37:58;9.90;99.90
3614;DHT22;1821;50.936;6.854;2023-04-01T03:38:43;10.00;99.90
3614;DHT22;1821;50.936;6.854;2023-04-01T03:39:26;10.00;99.90
3614;DHT22;1821;50.936;6.854;2023-04-01T03:40:08;10.00;1.00
3614;DHT22;1821;50.936;6.854;2023-04-01T03:40:50;9.80;1.00
3614;DHT22;1821;50.936;6.854;2023-04-01T03:41:34;9.70;99.90
3614;DHT22;1821;50.936;6.854;2023-04-01T03:42:19;10.00;99.90
3614;DHT22;1821;50.936;6.854;2023-04-01T03:43:02;9.70;99.90
3614;DHT22;1821;50.936;6.854;2023-04-01T03:43:44;10.00;99.90
3614;DHT22;1821;50.936;6.854;2023-04-01T03:44:30;10.00;99.90
3614;DHT22;1821;50.936;6.854;2023-04-01T03:45:13;9.90;99.90
3614;DHT22;1821;50.936;6.854;2023-04-01T03:45:58;9.90;99.90
3614;DHT22;1821;50.936;6.854;2023-04-01T03:46:40;10.00;99.90
3614;DHT22;1821;50.936;6.854;2023-04-01T03:47:24;9.90;99.90
3614;DHT22;1821;50.936;6.854;2023-04-01T03:48:06;9.50;99.90
3614;DHT22;1821;50.936;6.854;2023-04-01T03:48:48;9.90;99.90
3614;DHT22;1821;50.936;6.854;2023-04-01T03:49:33;9.70;99.90
3614;DHT22;1821;50.936;6.854;2023-04-01T03:50:18;10.00;99.90
3614;DHT22;1821;50.936;6.854;2023-04-01T03:51:01;9.90;99.90
3614;DHT22;1821;50.936;6.854;2023-04-01T03:51:43;10.10;99.90
3614;DHT22;1821;50.936;6.854;2023-04-01T03:52:26;10.10;99.90
3614;DHT22;1821;50.936;6.854;2023-04-01T03:53:08;9.70;99.90
3614;DHT22;1821;50.936;6.854;2023-04-01T03:53:50;9.90;99.90
3614;DHT22;1821;50.936;6.854;2023-04-01T03:54:32;9.80;99.90
3614;DHT22;1821;50.936;6.854;2023-04-01T03:55:14;10.10;99.90
3614;DHT22;1821;50.936;6.854;2023-04-01T03:55:57;9.90;99.90
3614;DHT22;1821;50.936;6.854;2023-04-01T03:56:39;9.90;99.90
3614;DHT22;1821;50.936;6.854;2023-04-01T03:57:21;10.00;99.90
3614;DHT22;1821;50.936;6.854;2023-04-01T03:58:04;9.90;99.90
3614;DHT22;1821;50.936;6.854;2023-04-01T03:58:47;9.90;99.90
3614;DHT22;1821;50.936;6.854;2023-04-01T03:59:29;9.90;99.90
3614;DHT22;1821;50.936;6.854;2023-04-01T04:00:12;10.00;99.90
3614;DHT22;1821;50.936;6.854;2023-04-01T04:00:54;9.90;99.90
3614;DHT22;1821;50.936;6.854;2023-04-01T04:01:36;10.20;99.90
3614;DHT22;1821;50.936;6.854;2023-04-01T04:02:18;10.00;99.90
3614;DHT22;1821;50.936;6.854;2023-04-01T04:03:00;10.00;99.90
3614;DHT22;1821;50.936;6.854;2023-04-01T04:03:43;9.80;99.90
3614;DHT22;1821;50.936;6.854;2023-04-01T04:04:26;10.20;99.90
3614;DHT22;1821;50.936;6.854;2023-04-01T04:05:08;10.10;99.90
3614;DHT22;1821;50.936;6.854;2023-04-01T04:05:51;10.20;99.90
3614;DHT22;1821;50.936;6.854;2023-04-01T04:06:33;10.00;99.90
3614;DHT22;1821;50.936;6.854;2023-04-01T04:07:15;9.80;99.90
3614;DHT22;1821;50.936;6.854;2023-04-01T04:07:59;10.00;99.90
3614;DHT22;1821;50.936;6.854;2023-04-01T04:08:41;10.00;99.90
3614;DHT22;1821;50.936;6.854;2023-04-01T04:09:23;10.30;99.90
3614;DHT22;1821;50.936;6.854;2023-04-01T04:10:06;10.20;99.90
3614;DHT22;1821;50.936;6.854;2023-04-01T04:10:55;10.80;99.90
3614;DHT22;1821;50.936;6.854;2023-04-01T04:11:39;9.90;99.90
3614;DHT22;1821;50.936;6.854;2023-04-01T04:12:21;9.70;99.90
3614;DHT22;1821;50.936;6.854;2023-04-01T04:13:03;10.20;99.90
3614;DHT22;1821;50.936;6.854;2023-04-01T04:13:45;9.90;99.90
3614;DHT22;1821;50.936;6.854;2023-04-01T04:14:29;10.10;99.90
3614;DHT22;1821;50.936;6.854;2023-04-01T04:15:11;10.00;99.90
3614;DHT22;1821;50.936;6.854;2023-04-01T04:15:53;10.00;99.90
3614;DHT22;1821;50.936;6.854;2023-04-01T04:16:36;9.90;99.90
3614;DHT22;1821;50.936;6.854;2023-04-01T04:17:18;10.50;99.90
3614;DHT22;1821;50.936;6.854;2023-04-01T04:18:01;10.30;99.90
3614;DHT22;1821;50.936;6.854;2023-04-01T04:18:43;9.80;99.90
3614;DHT22;1821;50.936;6.854;2023-04-01T04:19:24;10.00;99.90
3614;DHT22;1821;50.936;6.854;2023-04-01T04:20:07;9.80;99.90
3614;DHT22;1821;50.936;6.854;2023-04-01T04:20:52;10.10;99.90
3614;DHT22;1821;50.936;6.854;2023-04-01T04:21:34;10.20;99.90
3614;DHT22;1821;50.936;6.854;2023-04-01T04:22:16;9.80;99.90
3614;DHT22;1821;50.936;6.854;2023-04-01T04:23:00;10.00;99.90
3614;DHT22;1821;50.936;6.854;2023-04-01T04:23:43;10.00;99.90
3614;DHT22;1821;50.936;6.854;2023-04-01T04:24:25;10.00;99.90
3614;DHT22;1821;50.936;6.854;2023-04-01T04:25:09;10.10;99.90
3614;DHT22;1821;50.936;6.854;2023-04-01T04:26:00;9.80;99.90
3614;DHT22;1821;50.936;6.854;2023-04-01T04:26:44;9.70;99.90
3614;DHT22;1821;50.936;6.854;2023-04-01T04:27:27;10.10;99.90
3614;DHT22;1821;50.936;6.854;2023-04-01T04:28:09;10.00;99.90
3614;DHT22;1821;50.936;6.854;2023-04-01T04:28:51;10.00;99.90
3614;DHT22;1821;50.936;6.854;2023-04-01T04:29:33;9.90;99.90
3614;DHT22;1821;50.936;6.854;2023-04-01T04:30:15;9.70;99.90
3614;DHT22;1821;50.936;6.854;2023-04-01T04:30:59;9.70;99.90
3614;DHT22;1821;50.936;6.854;2023-04-01T04:31:42;9.70;99.90
3614;DHT22;1821;50.936;6.854;2023-04-01T04:32:24;10.10;99.90
3614;DHT22;1821;50.936;6.854;2023-04-01T04:33:06;9.80;99.90
3614;DHT22;1821;50.936;6.854;2023-04-01T04:33:48;9.70;99.90
3614;DHT22;1821;50.936;6.854;2023-04-01T04:34:31;10.00;99.90
3614;DHT22;1821;50.936;6.854;2023-04-01T04:35:12;9.70;99.90
3614;DHT22;1821;50.936;6.854;2023-04-01T04:35:56;9.80;99.90
3614;DHT22;1821;50.936;6.854;2023-04-01T04:36:38;10.00;99.90
3614;DHT22;1821;50.936;6.854;2023-04-01T04:37:22;9.70;99.90
3614;DHT22;1821;50.936;6.854;2023-04-01T04:38:04;9.80;99.90
3614;DHT22;1821;50.936;6.854;2023-04-01T04:38:47;9.80;99.90
3614;DHT22;1821;50.936;6.854;2023-04-01T04:39:29;10.00;99.90
3614;DHT22;1821;50.936;6.854;2023-04-01T04:40:11;9.90;99.90
3614;DHT22;1821;50.936;6.854;2023-04-01T04:40:54;10.10;1.00
3614;DHT22;1821;50.936;6.854;2023-04-01T04:41:37;10.00;1.00
3614;DHT22;1821;50.936;6.854;2023-04-01T04:42:19;9.80;1.00
3614;DHT22;1821;50.936;6.854;2023-04-01T04:43:01;9.60;1.00
3614;DHT22;1821;50.936;6.854;2023-04-01T04:43:50;9.50;1.00
3614;DHT22;1821;50.936;6.854;2023-04-01T04:44:34;9.70;4.50
3614;DHT22;1821;50.936;6.854;2023-04-01T04:45:17;9.70;22.90
3614;DHT22;1821;50.936;6.854;2023-04-01T04:45:59;9.60;85.20
3614;DHT22;1821;50.936;6.854;2023-04-01T04:46:40;9.60;99.90
3614;DHT22;1821;50.936;6.854;2023-04-01T04:47:22;9.60;99.90
3614;DHT22;1821;50.936;6.854;2023-04-01T04:48:06;9.60;99.90
3614;DHT22;1821;50.936;6.854;2023-04-01T04:48:49;9.00;1.00
3614;DHT22;1821;50.936;6.854;2023-04-01T04:49:31;9.70;1.00
3614;DHT22;1821;50.936;6.854;2023-04-01T04:50:12;9.60;99.90
3614;DHT22;1821;50.936;6.854;2023-04-01T04:50:54;9.90;1.00
3614;DHT22;1821;50.936;6.854;2023-04-01T04:51:37;9.70;98.00
3614;DHT22;1821;50.936;6.854;2023-04-01T04:52:19;9.70;1.00
3614;DHT22;1821;50.936;6.854;2023-04-01T04:53:02;9.80;40.50
3614;DHT22;1821;50.936;6.854;2023-04-01T04:53:44;9.50;99.90
3614;DHT22;1821;50.936;6.854;2023-04-01T04:54:26;9.90;99.90
3614;DHT22;1821;50.936;6.854;2023-04-01T04:55:08;9.50;99.90
3614;DHT22;1821;50.936;6.854;2023-04-01T04:55:53;9.50;99.90
3614;DHT22;1821;50.936;6.854;2023-04-01T04:56:35;9.50;99.90
3614;DHT22;1821;50.936;6.854;2023-04-01T04:57:19;9.90;99.90
3614;DHT22;1821;50.936;6.854;2023-04-01T04:58:02;9.90;99.90
3614;DHT22;1821;50.936;6.854;2023-04-01T04:58:44;9.70;99.90
3614;DHT22;1821;50.936;6.854;2023-04-01T04:59:26;9.80;1.00
3614;DHT22;1821;50.936;6.854;2023-04-01T05:00:08;9.70;1.00
3614;DHT22;1821;50.936;6.854;2023-04-01T05:00:51;9.60;1.00
3614;DHT22;1821;50.936;6.854;2023-04-01T05:01:33;9.70;1.00
3614;DHT22;1821;50.936;6.854;2023-04-01T05:02:16;9.70;1.00
3614;DHT22;1821;50.936;6.854;2023-04-01T05:02:59;9.90;99.90
3614;DHT22;1821;50.936;6.854;2023-04-01T05:03:43;9.60;99.90
3614;DHT22;1821;50.936;6.854;2023-04-01T05:04:25;9.50;99.90
3614;DHT22;1821;50.936;6.854;2023-04-01T05:05:07;9.50;10.70
3614;DHT22;1821;50.936;6.854;2023-04-01T05:05:53;9.80;74.90
3614;DHT22;1821;50.936;6.854;2023-04-01T05:06:35;9.70;1.00
3614;DHT22;1821;50.936;6.854;2023-04-01T05:07:17;9.70;99.90
3614;DHT22;1821;50.936;6.854;2023-04-01T05:07:59;9.60;99.90
3614;DHT22;1821;50.936;6.854;2023-04-01T05:08:43;9.60;1.00
3614;DHT22;1821;50.936;6.854;2023-04-01T05:09:27;9.60;1.00